createdAt,value
2019-02-20T00:01:49.124Z,2.60
2019-02-20T00:04:16.804Z,2.54
2019-02-20T00:06:44.203Z,2.49
2019-02-20T00:09:11.481Z,2.41
2019-02-20T00:11:38.603Z,2.33
2019-02-20T00:14:06.114Z,2.30
2019-02-20T00:16:33.984Z,2.16
2019-02-20T00:19:01.896Z,2.12
2019-02-20T00:21:29.619Z,2.10
2019-02-20T00:23:57.281Z,2.09
2019-02-20T00:26:24.414Z,2.11
2019-02-20T00:28:51.671Z,1.91
2019-02-20T00:31:19.244Z,1.98
2019-02-20T00:33:47.271Z,1.92
2019-02-20T00:36:15.120Z,1.62
2019-02-20T00:38:42.250Z,1.80
2019-02-20T00:41:09.746Z,1.55
2019-02-20T00:43:38.919Z,1.46
2019-02-20T00:46:14.453Z,1.43
2019-02-20T00:48:58.728Z,1.43
2019-02-20T00:52:00.822Z,1.35
2019-02-20T00:54:28.503Z,1.22
2019-02-20T00:56:56.123Z,1.18
2019-02-20T00:59:24.202Z,1.19
2019-02-20T01:01:51.665Z,1.35
2019-02-20T01:04:19.652Z,1.13
2019-02-20T01:06:48.044Z,1.04
2019-02-20T01:09:16.298Z,1.16
2019-02-20T01:11:44.162Z,1.13
2019-02-20T01:14:11.674Z,0.96
2019-02-20T01:16:39.043Z,0.84
2019-02-20T01:19:06.730Z,0.68
2019-02-20T01:21:34.165Z,0.61
2019-02-20T01:24:01.581Z,0.52
2019-02-20T01:26:28.712Z,0.58
2019-02-20T01:28:56.412Z,0.49
2019-02-20T01:31:24.299Z,0.48
2019-02-20T01:33:51.865Z,0.40
2019-02-20T01:36:19.420Z,0.36
2019-02-20T01:38:47.526Z,0.22
2019-02-20T01:41:15.345Z,0.29
2019-02-20T01:43:42.635Z,0.49
2019-02-20T01:46:10.698Z,0.61
2019-02-20T01:48:38.496Z,0.40
2019-02-20T01:51:06.242Z,0.40
2019-02-20T01:53:33.873Z,0.36
2019-02-20T01:56:01.340Z,0.21
2019-02-20T01:58:29.622Z,0.11
2019-02-20T02:00:57.224Z,0.17
2019-02-20T02:03:24.358Z,0.06
2019-02-20T02:05:52.543Z,0.05
2019-02-20T02:08:20.184Z,0.03
2019-02-20T02:10:47.816Z,0.10
2019-02-20T02:13:15.331Z,0.00
2019-02-20T02:15:43.655Z,0.11
2019-02-20T02:18:11.394Z,0.08
2019-02-20T02:20:38.632Z,0.07
2019-02-20T02:23:06.626Z,0.00
2019-02-20T02:25:34.341Z,0.01
2019-02-20T02:28:03.342Z,0.09
2019-02-20T02:30:31.247Z,0.03
2019-02-20T02:32:58.763Z,0.02
2019-02-20T02:35:26.049Z,0.05
2019-02-20T02:37:53.291Z,0.03
2019-02-20T02:40:21.113Z,-0.01
2019-02-20T02:42:48.289Z,-0.10
2019-02-20T02:45:15.918Z,-0.08
2019-02-20T02:47:43.203Z,-0.13
2019-02-20T02:50:11.407Z,-0.19
2019-02-20T02:52:39.057Z,-0.13
2019-02-20T02:55:06.483Z,-0.14
2019-02-20T02:57:33.859Z,-0.12
2019-02-20T03:00:01.600Z,-0.08
2019-02-20T03:02:29.273Z,-0.16
2019-02-20T03:04:56.891Z,-0.22
2019-02-20T03:07:24.462Z,-0.22
2019-02-20T03:09:52.073Z,-0.29
2019-02-20T03:12:19.215Z,-0.32
2019-02-20T03:14:46.799Z,-0.45
2019-02-20T03:17:14.486Z,-0.52
2019-02-20T03:19:41.900Z,-0.64
2019-02-20T03:22:09.688Z,-0.63
2019-02-20T03:24:37.099Z,-0.65
2019-02-20T03:27:05.207Z,-0.65
2019-02-20T03:29:32.811Z,-0.66
2019-02-20T03:32:00.489Z,-0.50
2019-02-20T03:34:30.779Z,-0.60
2019-02-20T03:36:58.082Z,-0.52
2019-02-20T03:39:25.773Z,-0.50
2019-02-20T03:41:53.332Z,-0.43
2019-02-20T03:44:21.402Z,-0.45
2019-02-20T03:46:48.822Z,-0.53
2019-02-20T03:49:16.720Z,-0.43
2019-02-20T03:51:44.081Z,-0.52
2019-02-20T03:54:11.811Z,-0.48
2019-02-20T03:56:39.472Z,-0.42
2019-02-20T03:59:07.061Z,-0.49
2019-02-20T04:01:34.449Z,-0.45
2019-02-20T04:04:02.821Z,-0.56
2019-02-20T04:06:30.349Z,-0.62
2019-02-20T04:08:57.878Z,-0.57
2019-02-20T04:11:25.708Z,-0.60
2019-02-20T04:13:53.587Z,-0.73
2019-02-20T04:16:21.389Z,-0.77
2019-02-20T04:18:49.745Z,-0.82
2019-02-20T04:21:17.010Z,-0.84
2019-02-20T04:23:44.846Z,-0.77
2019-02-20T04:26:12.759Z,-0.85
2019-02-20T04:28:40.366Z,-0.82
2019-02-20T04:31:07.810Z,-0.79
2019-02-20T04:33:35.773Z,-0.79
2019-02-20T04:36:03.199Z,-0.80
2019-02-20T04:38:31.440Z,-0.82
2019-02-20T04:40:58.947Z,-0.85
2019-02-20T04:43:26.791Z,-0.84
2019-02-20T04:45:54.909Z,-0.80
2019-02-20T04:48:22.338Z,-0.85
2019-02-20T04:50:50.247Z,-0.85
2019-02-20T04:53:17.778Z,-0.73
2019-02-20T04:55:46.200Z,-0.66
2019-02-20T04:58:18.573Z,-0.61
2019-02-20T05:00:46.423Z,-0.57
2019-02-20T05:03:13.901Z,-0.53
2019-02-20T05:05:41.781Z,-0.53
2019-02-20T05:08:09.305Z,-0.48
2019-02-20T05:10:37.535Z,-0.47
2019-02-20T05:13:05.285Z,-0.39
2019-02-20T05:15:33.637Z,-0.39
2019-02-20T05:18:00.811Z,-0.36
2019-02-20T05:20:28.090Z,-0.30
2019-02-20T05:22:55.792Z,-0.23
2019-02-20T05:25:23.230Z,-0.25
2019-02-20T05:27:51.095Z,-0.29
2019-02-20T05:30:18.704Z,-0.27
2019-02-20T05:32:46.694Z,-0.23
2019-02-20T05:35:14.766Z,-0.28
2019-02-20T05:37:42.707Z,-0.24
2019-02-20T05:40:10.645Z,-0.31
2019-02-20T05:42:38.639Z,-0.25
2019-02-20T05:45:06.804Z,-0.22
2019-02-20T05:47:34.215Z,-0.19
2019-02-20T05:50:01.597Z,-0.35
2019-02-20T05:52:29.252Z,-0.32
2019-02-20T05:54:57.369Z,-0.33
2019-02-20T05:57:25.016Z,-0.36
2019-02-20T05:59:52.700Z,-0.39
2019-02-20T06:02:23.478Z,-0.35
2019-02-20T06:04:51.603Z,-0.35
2019-02-20T06:07:19.859Z,-0.31
2019-02-20T06:09:47.031Z,-0.19
2019-02-20T06:12:14.508Z,-0.13
2019-02-20T06:14:42.399Z,-0.10
2019-02-20T06:17:10.061Z,-0.09
2019-02-20T06:19:37.603Z,-0.06
2019-02-20T06:22:05.669Z,-0.02
2019-02-20T06:24:43.649Z,0.07
2019-02-20T06:27:04.152Z,0.02
2019-02-20T06:29:31.394Z,-0.10
2019-02-20T06:31:58.715Z,-0.10
2019-02-20T06:34:26.867Z,-0.06
2019-02-20T06:36:58.629Z,-0.03
2019-02-20T06:39:26.254Z,-0.08
2019-02-20T06:41:53.823Z,-0.16
2019-02-20T06:44:23.710Z,-0.24
2019-02-20T06:46:52.126Z,-0.23
2019-02-20T06:49:19.787Z,-0.09
2019-02-20T06:51:47.077Z,0.07
2019-02-20T06:54:15.019Z,0.10
2019-02-20T06:56:43.160Z,0.14
2019-02-20T06:59:10.635Z,0.31
2019-02-20T07:01:38.118Z,0.43
2019-02-20T07:04:06.567Z,0.58
2019-02-20T07:07:46.602Z,0.61
2019-02-20T07:11:10.593Z,0.73
2019-02-20T07:14:07.002Z,0.82
2019-02-20T07:17:51.776Z,0.91
2019-02-20T07:21:28.680Z,1.08
2019-02-20T07:24:32.178Z,1.22
2019-02-20T07:27:56.541Z,1.24
2019-02-20T07:30:23.916Z,1.20
2019-02-20T07:32:51.158Z,1.43
2019-02-20T07:35:18.606Z,1.48
2019-02-20T07:37:46.067Z,1.54
2019-02-20T07:40:13.442Z,1.69
2019-02-20T07:42:41.298Z,1.85
2019-02-20T07:45:13.962Z,2.07
2019-02-20T07:47:41.272Z,2.02
2019-02-20T07:50:14.649Z,2.20
2019-02-20T07:52:41.934Z,2.16
2019-02-20T07:55:13.157Z,2.29
2019-02-20T07:57:39.074Z,2.31
2019-02-20T08:00:09.420Z,2.42
2019-02-20T08:02:36.976Z,2.68
2019-02-20T08:05:05.194Z,2.86
2019-02-20T08:07:32.814Z,3.03
2019-02-20T08:10:00.422Z,3.06
2019-02-20T08:12:28.018Z,3.27
2019-02-20T08:14:55.685Z,3.37
2019-02-20T08:17:23.704Z,3.61
2019-02-20T08:19:51.272Z,4.00
2019-02-20T08:22:19.762Z,4.40
2019-02-20T08:24:47.362Z,4.55
2019-02-20T08:27:15.496Z,4.87
2019-02-20T08:29:42.925Z,5.05
2019-02-20T08:32:10.543Z,5.20
2019-02-20T08:34:38.661Z,5.37
2019-02-20T08:37:06.926Z,5.50
2019-02-20T08:39:34.973Z,5.73
2019-02-20T08:42:02.627Z,5.98
2019-02-20T08:44:30.287Z,6.04
2019-02-20T08:46:57.704Z,6.05
2019-02-20T08:49:25.709Z,6.22
2019-02-20T08:51:53.564Z,6.41
2019-02-20T08:54:20.951Z,6.53
2019-02-20T08:56:49.179Z,6.64
2019-02-20T08:59:16.863Z,6.91
2019-02-20T09:01:44.475Z,6.99
2019-02-20T09:04:12.234Z,7.40
2019-02-20T09:06:40.279Z,7.54
2019-02-20T09:09:07.966Z,8.06
2019-02-20T09:11:36.086Z,8.36
2019-02-20T09:14:03.484Z,8.62
2019-02-20T09:16:31.111Z,8.86
2019-02-20T09:18:58.396Z,9.10
2019-02-20T09:21:25.978Z,9.27
2019-02-20T09:23:53.487Z,9.50
2019-02-20T09:26:20.850Z,9.54
2019-02-20T09:28:50.631Z,9.58
2019-02-20T09:31:18.392Z,9.83
2019-02-20T09:33:45.802Z,10.06
2019-02-20T09:36:13.113Z,10.32
2019-02-20T09:38:40.618Z,10.59
2019-02-20T09:41:08.526Z,10.66
2019-02-20T09:43:36.326Z,10.63
2019-02-20T09:46:03.821Z,10.91
2019-02-20T09:48:31.602Z,11.15
2019-02-20T09:50:58.763Z,11.29
2019-02-20T09:53:26.424Z,11.51
2019-02-20T09:55:54.245Z,11.57
2019-02-20T09:58:21.892Z,11.69
2019-02-20T10:00:49.946Z,11.80
2019-02-20T10:03:17.141Z,11.83
2019-02-20T10:05:45.114Z,11.87
2019-02-20T10:08:12.840Z,11.71
2019-02-20T10:10:40.427Z,11.95
2019-02-20T10:13:10.933Z,12.13
2019-02-20T10:15:37.779Z,12.39
2019-02-20T10:18:05.431Z,12.71
2019-02-20T10:20:32.690Z,12.96
2019-02-20T10:23:00.529Z,13.34
2019-02-20T10:25:28.276Z,13.43
2019-02-20T10:27:55.572Z,13.49
2019-02-20T10:30:23.342Z,13.65
2019-02-20T10:32:50.695Z,13.72
2019-02-20T10:35:18.171Z,13.56
2019-02-20T10:37:45.656Z,13.70
2019-02-20T10:40:13.132Z,13.64
2019-02-20T10:42:40.844Z,14.02
2019-02-20T10:45:08.435Z,14.07
2019-02-20T10:47:36.684Z,14.34
2019-02-20T10:50:04.989Z,14.52
2019-02-20T10:52:32.457Z,14.43
2019-02-20T10:55:00.233Z,14.66
2019-02-20T10:57:27.585Z,14.91
2019-02-20T10:59:55.698Z,14.88
2019-02-20T11:02:23.712Z,15.06
2019-02-20T11:04:54.611Z,15.21
2019-02-20T11:07:21.727Z,15.48
2019-02-20T11:09:49.553Z,15.64
2019-02-20T11:12:17.100Z,15.94
2019-02-20T11:14:44.983Z,16.01
2019-02-20T11:17:12.510Z,15.89
2019-02-20T11:19:40.578Z,15.81
2019-02-20T11:22:08.816Z,15.98
2019-02-20T11:24:36.893Z,16.20
2019-02-20T11:27:04.683Z,16.48
2019-02-20T11:29:32.872Z,16.53
2019-02-20T11:32:00.380Z,16.62
2019-02-20T11:34:28.127Z,16.72
2019-02-20T11:36:56.250Z,16.75
2019-02-20T11:39:24.393Z,16.59
2019-02-20T11:41:52.397Z,16.64
2019-02-20T11:44:21.269Z,16.52
2019-02-20T11:46:49.169Z,16.75
2019-02-20T11:49:16.340Z,16.56
2019-02-20T11:51:43.901Z,16.62
2019-02-20T11:54:11.514Z,16.89
2019-02-20T11:56:39.565Z,16.57
2019-02-20T11:59:06.871Z,16.13
2019-02-20T12:01:34.317Z,16.06
2019-02-20T12:04:01.738Z,16.22
2019-02-20T12:06:29.688Z,16.13
2019-02-20T12:08:57.485Z,16.20
2019-02-20T12:11:26.148Z,16.32
2019-02-20T12:13:53.309Z,16.63
2019-02-20T12:16:20.578Z,16.55
2019-02-20T12:18:48.093Z,16.23
2019-02-20T12:21:15.795Z,16.28
2019-02-20T12:23:43.727Z,16.28
2019-02-20T12:26:11.446Z,16.17
2019-02-20T12:28:38.693Z,16.20
2019-02-20T12:31:06.843Z,15.92
2019-02-20T12:33:35.234Z,15.84
2019-02-20T12:36:03.547Z,16.00
2019-02-20T12:38:31.739Z,16.09
2019-02-20T12:40:59.755Z,15.82
2019-02-20T12:43:27.608Z,15.96
2019-02-20T12:45:55.503Z,15.70
2019-02-20T12:48:24.403Z,15.61
2019-02-20T12:50:51.506Z,15.44
2019-02-20T12:53:19.408Z,15.22
2019-02-20T12:55:47.395Z,15.24
2019-02-20T12:58:15.424Z,15.07
2019-02-20T13:00:43.765Z,15.10
2019-02-20T13:03:11.444Z,14.87
2019-02-20T13:05:38.861Z,14.80
2019-02-20T13:08:07.109Z,15.05
2019-02-20T13:10:35.109Z,15.09
2019-02-20T13:13:02.822Z,15.19
2019-02-20T13:15:29.950Z,15.30
2019-02-20T13:17:58.147Z,15.28
2019-02-20T13:20:25.549Z,15.25
2019-02-20T13:22:53.462Z,15.18
2019-02-20T13:25:21.209Z,15.48
2019-02-20T13:27:48.767Z,15.57
2019-02-20T13:30:16.532Z,15.58
2019-02-20T13:32:43.762Z,15.57
2019-02-20T13:35:11.653Z,15.51
2019-02-20T13:37:38.919Z,15.54
2019-02-20T13:40:07.197Z,15.47
2019-02-20T13:42:34.733Z,15.56
2019-02-20T13:45:02.604Z,15.49
2019-02-20T13:47:30.221Z,15.60
2019-02-20T13:49:57.474Z,15.32
2019-02-20T13:52:25.163Z,15.25
2019-02-20T13:54:52.548Z,15.27
2019-02-20T13:57:20.464Z,15.10
2019-02-20T13:59:47.603Z,15.10
2019-02-20T14:02:15.187Z,14.97
2019-02-20T14:04:43.066Z,14.97
2019-02-20T14:07:11.708Z,14.81
2019-02-20T14:09:39.264Z,14.97
2019-02-20T14:12:07.232Z,14.95
2019-02-20T14:14:34.838Z,14.83
2019-02-20T14:17:02.599Z,14.81
2019-02-20T14:19:30.405Z,14.88
2019-02-20T14:21:57.679Z,14.82
2019-02-20T14:24:25.263Z,14.84
2019-02-20T14:26:53.176Z,14.80
2019-02-20T14:29:20.693Z,14.83
2019-02-20T14:31:49.651Z,14.54
2019-02-20T14:34:17.180Z,14.65
2019-02-20T14:36:44.742Z,14.52
2019-02-20T14:39:12.567Z,14.44
2019-02-20T14:41:40.137Z,14.18
2019-02-20T14:44:07.422Z,14.18
2019-02-20T14:46:36.303Z,14.21
2019-02-20T14:49:03.903Z,14.11
2019-02-20T14:51:31.781Z,14.01
2019-02-20T14:53:59.624Z,14.04
2019-02-20T14:56:28.039Z,14.07
2019-02-20T14:58:55.321Z,14.02
2019-02-20T15:01:23.049Z,13.89
2019-02-20T15:03:51.037Z,13.92
2019-02-20T15:06:19.109Z,13.56
2019-02-20T15:08:47.040Z,13.68
2019-02-20T15:11:14.333Z,13.61
2019-02-20T15:13:42.163Z,13.74
2019-02-20T15:16:09.698Z,13.70
2019-02-20T15:18:37.325Z,13.61
2019-02-20T15:21:04.978Z,13.56
2019-02-20T15:23:33.116Z,13.42
2019-02-20T15:26:01.129Z,13.24
2019-02-20T15:28:29.191Z,13.43
2019-02-20T15:30:56.748Z,13.35
2019-02-20T15:33:24.937Z,13.28
2019-02-20T15:35:52.700Z,13.33
2019-02-20T15:38:20.675Z,12.97
2019-02-20T15:40:48.759Z,12.97
2019-02-20T15:43:16.918Z,12.99
2019-02-20T15:45:44.290Z,12.86
2019-02-20T15:48:12.139Z,12.85
2019-02-20T15:50:39.420Z,12.68
2019-02-20T15:53:10.283Z,12.64
2019-02-20T15:55:38.745Z,12.53
2019-02-20T15:58:06.315Z,12.57
2019-02-20T16:00:34.457Z,12.61
2019-02-20T16:03:02.174Z,12.60
2019-02-20T16:05:29.849Z,12.55
2019-02-20T16:07:57.905Z,12.50
2019-02-20T16:10:25.470Z,12.45
2019-02-20T16:12:53.546Z,12.44
2019-02-20T16:15:21.464Z,12.38
2019-02-20T16:17:49.499Z,12.32
2019-02-20T16:20:17.164Z,12.29
2019-02-20T16:22:44.730Z,12.25
2019-02-20T16:25:12.846Z,12.17
2019-02-20T16:27:47.104Z,12.17
2019-02-20T16:30:11.631Z,12.15
2019-02-20T16:32:39.331Z,12.07
2019-02-20T16:35:07.834Z,12.00
2019-02-20T16:37:36.874Z,11.94
2019-02-20T16:40:07.201Z,11.88
2019-02-20T16:42:35.088Z,11.85
2019-02-20T16:45:02.970Z,11.87
2019-02-20T16:47:30.831Z,11.83
2019-02-20T16:49:58.250Z,11.79
2019-02-20T16:52:25.833Z,11.69
2019-02-20T16:54:55.106Z,11.63
2019-02-20T16:57:22.831Z,11.58
2019-02-20T16:59:50.686Z,11.61
2019-02-20T17:02:20.356Z,11.57
2019-02-20T17:04:47.890Z,11.48
2019-02-20T17:07:15.354Z,11.45
2019-02-20T17:09:43.853Z,11.32
2019-02-20T17:12:12.418Z,11.32
2019-02-20T17:14:39.946Z,11.28
2019-02-20T17:17:07.660Z,11.23
2019-02-20T17:19:35.466Z,11.18
2019-02-20T17:22:03.065Z,11.09
2019-02-20T17:24:30.715Z,11.06
2019-02-20T17:26:59.341Z,11.12
2019-02-20T17:29:27.027Z,11.07
2019-02-20T17:31:54.991Z,10.99
2019-02-20T17:34:22.343Z,10.90
2019-02-20T17:36:49.992Z,10.87
2019-02-20T17:39:17.992Z,10.78
2019-02-20T17:41:45.674Z,10.73
2019-02-20T17:44:14.041Z,10.64
2019-02-20T17:46:41.610Z,10.56
2019-02-20T17:49:09.166Z,10.53
2019-02-20T17:51:36.842Z,10.38
2019-02-20T17:54:04.227Z,10.48
2019-02-20T17:56:32.075Z,10.29
2019-02-20T17:58:59.832Z,10.20
2019-02-20T18:01:28.063Z,10.13
2019-02-20T18:03:56.081Z,9.92
2019-02-20T18:06:23.703Z,9.82
2019-02-20T18:08:51.413Z,9.76
2019-02-20T18:11:19.898Z,9.71
2019-02-20T18:13:47.181Z,9.69
2019-02-20T18:16:14.752Z,9.73
2019-02-20T18:18:42.384Z,9.62
2019-02-20T18:21:09.926Z,9.67
2019-02-20T18:23:42.983Z,9.65
2019-02-20T18:26:10.708Z,9.30
2019-02-20T18:28:38.483Z,9.01
2019-02-20T18:31:16.086Z,8.82
2019-02-20T18:33:44.745Z,8.75
2019-02-20T18:36:12.210Z,8.73
2019-02-20T18:38:39.616Z,8.63
2019-02-20T18:41:07.358Z,8.43
2019-02-20T18:43:34.940Z,8.39
2019-02-20T18:46:02.518Z,8.39
2019-02-20T18:48:30.134Z,8.30
2019-02-20T18:50:58.375Z,8.28
2019-02-20T18:53:25.822Z,8.25
2019-02-20T18:55:56.150Z,8.24
2019-02-20T18:58:33.544Z,8.10
2019-02-20T19:00:54.204Z,8.07
2019-02-20T19:03:21.490Z,8.04
2019-02-20T19:05:49.032Z,7.86
2019-02-20T19:08:37.674Z,7.85
2019-02-20T19:11:18.731Z,7.79
2019-02-20T19:14:36.647Z,7.64
2019-02-20T19:18:04.827Z,7.51
2019-02-20T19:21:14.048Z,7.26
2019-02-20T19:24:37.251Z,7.15
2019-02-20T19:28:08.564Z,7.34
2019-02-20T19:31:38.589Z,7.38
2019-02-20T19:34:55.273Z,6.96
2019-02-20T19:38:11.329Z,6.77
2019-02-20T19:41:41.761Z,6.58
2019-02-20T19:44:25.618Z,6.52
2019-02-20T19:47:28.557Z,6.60
2019-02-20T19:50:43.872Z,6.46
2019-02-20T19:53:48.220Z,6.41
2019-02-20T19:56:44.104Z,6.42
2019-02-20T20:00:28.087Z,6.38
2019-02-20T20:04:03.899Z,6.21
2019-02-20T20:07:38.420Z,6.04
2019-02-20T20:11:17.077Z,5.87
2019-02-20T20:15:19.224Z,5.75
2019-02-20T20:19:24.544Z,5.75
2019-02-20T20:23:06.326Z,5.65
2019-02-20T20:26:00.775Z,5.45
2019-02-20T20:29:22.849Z,5.58
2019-02-20T20:32:56.497Z,5.46
2019-02-20T20:37:05.155Z,5.31
2019-02-20T20:40:06.872Z,5.42
2019-02-20T20:43:43.834Z,5.71
2019-02-20T20:46:50.505Z,5.73
2019-02-20T20:49:57.868Z,5.31
2019-02-20T20:53:19.787Z,5.14
2019-02-20T20:56:14.898Z,5.00
2019-02-20T20:59:38.891Z,4.89
2019-02-20T21:02:17.027Z,4.84
2019-02-20T21:05:53.689Z,4.70
2019-02-20T21:08:36.799Z,4.68
2019-02-20T21:12:03.131Z,4.55
2019-02-20T21:15:12.917Z,4.40
2019-02-20T21:18:41.992Z,4.35
2019-02-20T21:22:14.340Z,4.31
2019-02-20T21:25:42.724Z,4.36
2019-02-20T21:28:47.713Z,4.34
2019-02-20T21:32:01.031Z,4.07
2019-02-20T21:35:29.275Z,4.06
2019-02-20T21:38:28.963Z,4.06
2019-02-20T21:41:44.355Z,4.03
2019-02-20T21:44:47.666Z,3.96
2019-02-20T21:48:24.965Z,3.85
2019-02-20T21:51:59.535Z,3.80
2019-02-20T21:55:15.580Z,3.77
2019-02-20T21:58:39.760Z,3.79
2019-02-20T22:01:45.755Z,3.97
2019-02-20T22:05:02.618Z,3.87
2019-02-20T22:08:37.776Z,3.92
2019-02-20T22:12:05.211Z,3.78
2019-02-20T22:15:19.965Z,3.72
2019-02-20T22:18:27.857Z,3.73
2019-02-20T22:22:06.934Z,3.81
2019-02-20T22:25:15.787Z,3.72
2019-02-20T22:28:01.653Z,3.80
2019-02-20T22:31:29.099Z,3.68
2019-02-20T22:34:41.876Z,3.74
2019-02-20T22:38:03.607Z,3.73
2019-02-20T22:41:14.927Z,3.66
2019-02-20T22:45:11.011Z,3.64
2019-02-20T22:48:58.186Z,3.67
2019-02-20T22:51:53.194Z,3.72
2019-02-20T22:54:56.070Z,3.71
2019-02-20T22:58:25.055Z,3.63
2019-02-20T23:01:50.542Z,3.61
2019-02-20T23:05:21.357Z,3.61
2019-02-20T23:08:05.905Z,3.67
2019-02-20T23:11:29.398Z,3.63
2019-02-20T23:17:57.263Z,3.71
2019-02-20T23:20:24.955Z,3.71
2019-02-20T23:22:52.663Z,3.63
2019-02-20T23:25:24.170Z,3.56
2019-02-20T23:27:51.828Z,3.62
2019-02-20T23:30:19.514Z,3.68
2019-02-20T23:32:47.430Z,3.68
2019-02-20T23:35:15.527Z,3.68
2019-02-20T23:37:43.232Z,3.76
2019-02-20T23:40:11.470Z,3.61
2019-02-20T23:42:39.630Z,3.55
2019-02-20T23:45:11.297Z,3.51
2019-02-20T23:47:39.678Z,3.53
2019-02-20T23:50:07.656Z,3.56
2019-02-20T23:52:42.381Z,3.55
2019-02-20T23:55:13.072Z,3.54
2019-02-20T23:57:40.751Z,3.45
